sensor_id;sensor_type;location;lat;lon;timestamp;pressure;altitude;pressure_sealevel;temperature;humidity
38038;BME280;23843;51.320;12.340;2023-02-24T05:30:42;99690.72;;;5.61;100.00
38038;BME280;23843;51.320;12.340;2023-02-24T05:33:08;99688.16;;;5.59;100.00
38038;BME280;23843;51.320;12.340;2023-02-24T05:35:35;99689.88;;;5.60;100.00
38038;BME280;23843;51.320;12.340;2023-02-24T05:38:01;99692.44;;;5.62;100.00
38038;BME280;23843;51.320;12.340;2023-02-24T05:40:28;99679.44;;;5.58;100.00
38038;BME280;23843;51.320;12.340;2023-02-24T05:42:54;99682.78;;;5.62;100.00
38038;BME280;23843;51.320;12.340;2023-02-24T05:45:20;99678.25;;;5.66;100.00
38038;BME280;23843;51.320;12.340;2023-02-24T05:47:50;99672.13;;;5.65;100.00
38038;BME280;23843;51.320;12.340;2023-02-24T05:50:20;99677.47;;;5.64;100.00
38038;BME280;23843;51.320;12.340;2023-02-24T05:52:47;99667.75;;;5.66;100.00
38038;BME280;23843;51.320;12.340;2023-02-24T05:55:14;99664.19;;;5.67;100.00
38038;BME280;23843;51.320;12.340;2023-02-24T05:57:40;99664.31;;;5.64;100.00
38038;BME280;23843;51.320;12.340;2023-02-24T06:00:08;99658.91;;;5.67;100.00
38038;BME280;23843;51.320;12.340;2023-02-24T06:02:34;99657.44;;;5.61;100.00
38038;BME280;23843;51.320;12.340;2023-02-24T06:05:01;99655.00;;;5.56;100.00
38038;BME280;23843;51.320;12.340;2023-02-24T06:07:29;99655.78;;;5.58;100.00
38038;BME280;23843;51.320;12.340;2023-02-24T06:09:57;99665.22;;;5.63;100.00
38038;BME280;23843;51.320;12.340;2023-02-24T06:12:24;99656.25;;;5.68;100.00
38038;BME280;23843;51.320;12.340;2023-02-24T06:14:50;99655.50;;;5.65;100.00
38038;BME280;23843;51.320;12.340;2023-02-24T06:17:16;99652.22;;;5.60;100.00
38038;BME280;23843;51.320;12.340;2023-02-24T06:19:43;99657.53;;;5.58;100.00
38038;BME280;23843;51.320;12.340;2023-02-24T06:22:14;99644.34;;;5.60;100.00
38038;BME280;23843;51.320;12.340;2023-02-24T06:24:40;99649.59;;;5.60;100.00
38038;BME280;23843;51.320;12.340;2023-02-24T06:27:06;99637.53;;;5.55;100.00
38038;BME280;23843;51.320;12.340;2023-02-24T06:29:32;99643.56;;;5.57;100.00
38038;BME280;23843;51.320;12.340;2023-02-24T06:31:57;99648.81;;;5.57;100.00
38038;BME280;23843;51.320;12.340;2023-02-24T06:34:23;99649.59;;;5.60;100.00
38038;BME280;23843;51.320;12.340;2023-02-24T06:36:49;99639.88;;;5.62;100.00
38038;BME280;23843;51.320;12.340;2023-02-24T06:39:16;99640.69;;;5.64;100.00
38038;BME280;23843;51.320;12.340;2023-02-24T06:41:48;99633.56;;;5.66;100.00
38038;BME280;23843;51.320;12.340;2023-02-24T06:44:14;99634.34;;;5.68;100.00
38038;BME280;23843;51.320;12.340;2023-02-24T06:46:39;99625.59;;;5.67;100.00
38038;BME280;23843;51.320;12.340;2023-02-24T06:49:06;99626.66;;;5.63;100.00
38038;BME280;23843;51.320;12.340;2023-02-24T06:51:31;99622.97;;;5.67;100.00
38038;BME280;23843;51.320;12.340;2023-02-24T06:53:58;99620.13;;;5.72;100.00
38038;BME280;23843;51.320;12.340;2023-02-24T06:56:26;99621.63;;;5.77;100.00
38038;BME280;23843;51.320;12.340;2023-02-24T06:58:53;99631.16;;;5.80;100.00
38038;BME280;23843;51.320;12.340;2023-02-24T07:01:21;99630.09;;;5.84;100.00
38038;BME280;23843;51.320;12.340;2023-02-24T07:03:50;99626.19;;;5.93;100.00
38038;BME280;23843;51.320;12.340;2023-02-24T07:06:16;99633.34;;;5.89;100.00
38038;BME280;23843;51.320;12.340;2023-02-24T07:08:42;99634.19;;;5.90;100.00
38038;BME280;23843;51.320;12.340;2023-02-24T07:11:07;99628.88;;;5.91;100.00
38038;BME280;23843;51.320;12.340;2023-02-24T07:13:34;99635.66;;;5.97;100.00
38038;BME280;23843;51.320;12.340;2023-02-24T07:16:00;99631.28;;;5.97;100.00
38038;BME280;23843;51.320;12.340;2023-02-24T07:18:26;99626.06;;;5.96;100.00
38038;BME280;23843;51.320;12.340;2023-02-24T07:20:52;99625.28;;;5.94;100.00
38038;BME280;23843;51.320;12.340;2023-02-24T07:23:18;99628.09;;;5.89;100.00
38038;BME280;23843;51.320;12.340;2023-02-24T07:25:44;99627.31;;;5.87;100.00
38038;BME280;23843;51.320;12.340;2023-02-24T07:28:09;99621.94;;;5.90;100.00
38038;BME280;23843;51.320;12.340;2023-02-24T07:30:39;99620.88;;;5.94;100.00
38038;BME280;23843;51.320;12.340;2023-02-24T07:33:05;99621.50;;;5.99;100.00
38038;BME280;23843;51.320;12.340;2023-02-24T07:35:30;99613.50;;;6.03;100.00
38038;BME280;23843;51.320;12.340;2023-02-24T07:37:58;99604.53;;;6.07;100.00
38038;BME280;23843;51.320;12.340;2023-02-24T07:40:23;99595.84;;;6.05;100.00
38038;BME280;23843;51.320;12.340;2023-02-24T07:42:49;99598.78;;;5.98;100.00
38038;BME280;23843;51.320;12.340;2023-02-24T07:45:14;99594.22;;;6.02;100.00
38038;BME280;23843;51.320;12.340;2023-02-24T07:47:41;99597.72;;;6.03;100.00
38038;BME280;23843;51.320;12.340;2023-02-24T07:50:08;99599.41;;;6.04;100.00
38038;BME280;23843;51.320;12.340;2023-02-24T07:52:36;99595.56;;;6.11;100.00
38038;BME280;23843;51.320;12.340;2023-02-24T07:55:02;99588.31;;;6.16;100.00
38038;BME280;23843;51.320;12.340;2023-02-24T07:57:29;99577.34;;;6.25;100.00
38038;BME280;23843;51.320;12.340;2023-02-24T07:59:55;99565.66;;;6.31;100.00
38038;BME280;23843;51.320;12.340;2023-02-24T08:02:21;99563.81;;;6.33;100.00
38038;BME280;23843;51.320;12.340;2023-02-24T08:04:48;99560.81;;;6.40;100.00
38038;BME280;23843;51.320;12.340;2023-02-24T08:07:15;99549.84;;;6.50;100.00
38038;BME280;23843;51.320;12.340;2023-02-24T08:09:41;99559.19;;;6.55;100.00
38038;BME280;23843;51.320;12.340;2023-02-24T08:12:07;99550.06;;;6.62;100.00
38038;BME280;23843;51.320;12.340;2023-02-24T08:14:35;99543.53;;;6.87;100.00
38038;BME280;23843;51.320;12.340;2023-02-24T08:17:02;99535.13;;;7.14;100.00
38038;BME280;23843;51.320;12.340;2023-02-24T08:19:29;99528.56;;;7.54;100.00
38038;BME280;23843;51.320;12.340;2023-02-24T08:21:56;99532.41;;;8.26;100.00
38038;BME280;23843;51.320;12.340;2023-02-24T08:24:24;99531.31;;;9.75;100.00
38038;BME280;23843;51.320;12.340;2023-02-24T08:26:53;99521.94;;;10.91;99.44
38038;BME280;23843;51.320;12.340;2023-02-24T08:29:19;99515.72;;;11.54;81.19
38038;BME280;23843;51.320;12.340;2023-02-24T08:31:45;99511.75;;;12.10;86.15
38038;BME280;23843;51.320;12.340;2023-02-24T08:34:11;99502.91;;;12.33;76.71
38038;BME280;23843;51.320;12.340;2023-02-24T08:36:39;99501.59;;;12.97;75.53
38038;BME280;23843;51.320;12.340;2023-02-24T08:39:09;99494.38;;;13.66;65.06
38038;BME280;23843;51.320;12.340;2023-02-24T08:41:34;99481.38;;;13.84;64.88
38038;BME280;23843;51.320;12.340;2023-02-24T08:44:00;99483.50;;;13.58;60.39
38038;BME280;23843;51.320;12.340;2023-02-24T08:46:26;99477.00;;;13.51;70.98
38038;BME280;23843;51.320;12.340;2023-02-24T08:48:53;99478.81;;;13.39;62.17
38038;BME280;23843;51.320;12.340;2023-02-24T08:51:25;99470.09;;;13.48;57.36
38038;BME280;23843;51.320;12.340;2023-02-24T08:53:53;99474.06;;;13.54;61.19
38038;BME280;23843;51.320;12.340;2023-02-24T08:56:26;99455.72;;;13.28;58.84
38038;BME280;23843;51.320;12.340;2023-02-24T08:58:54;99457.03;;;12.89;58.15
38038;BME280;23843;51.320;12.340;2023-02-24T09:01:22;99440.78;;;12.47;58.97
38038;BME280;23843;51.320;12.340;2023-02-24T09:03:54;99440.28;;;11.83;62.84
38038;BME280;23843;51.320;12.340;2023-02-24T09:06:24;99441.50;;;11.42;65.54
38038;BME280;23843;51.320;12.340;2023-02-24T09:08:54;99431.69;;;11.18;69.66
38038;BME280;23843;51.320;12.340;2023-02-24T09:11:22;99431.94;;;10.89;72.02
38038;BME280;23843;51.320;12.340;2023-02-24T09:13:48;99427.53;;;10.39;75.34
38038;BME280;23843;51.320;12.340;2023-02-24T09:16:14;99424.19;;;10.22;79.16
38038;BME280;23843;51.320;12.340;2023-02-24T09:18:44;99420.34;;;10.14;88.07
38038;BME280;23843;51.320;12.340;2023-02-24T09:21:13;99423.13;;;9.58;86.63
38038;BME280;23843;51.320;12.340;2023-02-24T09:23:42;99423.78;;;9.61;89.31
38038;BME280;23843;51.320;12.340;2023-02-24T09:26:09;99418.03;;;9.28;93.50
38038;BME280;23843;51.320;12.340;2023-02-24T09:28:36;99412.84;;;9.26;95.61
38038;BME280;23843;51.320;12.340;2023-02-24T09:31:02;99402.19;;;9.13;96.86
38038;BME280;23843;51.320;12.340;2023-02-24T09:33:29;99394.75;;;9.06;97.83
38038;BME280;23843;51.320;12.340;2023-02-24T09:35:58;99391.78;;;8.97;96.66
38038;BME280;23843;51.320;12.340;2023-02-24T09:38:24;99382.53;;;8.90;97.09
38038;BME280;23843;51.320;12.340;2023-02-24T09:40:50;99384.41;;;8.88;97.17
38038;BME280;23843;51.320;12.340;2023-02-24T09:43:19;99384.31;;;8.90;97.79
38038;BME280;23843;51.320;12.340;2023-02-24T09:45:51;99369.03;;;8.95;100.00
38038;BME280;23843;51.320;12.340;2023-02-24T09:48:25;99376.34;;;9.04;99.33
38038;BME280;23843;51.320;12.340;2023-02-24T09:50:54;99365.66;;;9.20;98.79
38038;BME280;23843;51.320;12.340;2023-02-24T09:53:20;99363.16;;;9.31;98.89
38038;BME280;23843;51.320;12.340;2023-02-24T09:55:49;99356.50;;;9.26;99.87
38038;BME280;23843;51.320;12.340;2023-02-24T09:58:20;99358.53;;;9.08;98.21
38038;BME280;23843;51.320;12.340;2023-02-24T10:00:55;99352.16;;;8.97;98.04
38038;BME280;23843;51.320;12.340;2023-02-24T10:03:31;99355.38;;;8.74;100.00
38038;BME280;23843;51.320;12.340;2023-02-24T10:06:00;99353.56;;;8.74;100.00
38038;BME280;23843;51.320;12.340;2023-02-24T10:08:32;99343.97;;;8.59;100.00
38038;BME280;23843;51.320;12.340;2023-02-24T10:11:03;99342.38;;;8.42;100.00
38038;BME280;23843;51.320;12.340;2023-02-24T10:13:30;99338.97;;;8.40;100.00
38038;BME280;23843;51.320;12.340;2023-02-24T10:16:01;99333.16;;;8.49;100.00
38038;BME280;23843;51.320;12.340;2023-02-24T10:18:31;99324.00;;;8.55;100.00
38038;BME280;23843;51.320;12.340;2023-02-24T10:21:05;99309.16;;;8.81;100.00
38038;BME280;23843;51.320;12.340;2023-02-24T10:23:47;99304.47;;;8.99;100.00
38038;BME280;23843;51.320;12.340;2023-02-24T10:26:18;99296.13;;;9.19;100.00
38038;BME280;23843;51.320;12.340;2023-02-24T10:28:49;99291.00;;;9.43;100.00
38038;BME280;23843;51.320;12.340;2023-02-24T10:31:26;99279.94;;;9.64;100.00
38038;BME280;23843;51.320;12.340;2023-02-24T10:33:57;99275.63;;;9.76;99.99
38038;BME280;23843;51.320;12.340;2023-02-24T10:36:25;99275.41;;;9.79;96.87
38038;BME280;23843;51.320;12.340;2023-02-24T10:38:52;99269.72;;;9.98;95.16
38038;BME280;23843;51.320;12.340;2023-02-24T10:41:19;99267.06;;;9.98;94.64
38038;BME280;23843;51.320;12.340;2023-02-24T10:43:53;99268.34;;;10.05;93.17
38038;BME280;23843;51.320;12.340;2023-02-24T10:46:28;99262.72;;;9.84;93.08
38038;BME280;23843;51.320;12.340;2023-02-24T10:48:57;99262.19;;;10.04;94.69
38038;BME280;23843;51.320;12.340;2023-02-24T10:51:23;99260.50;;;10.03;93.92
38038;BME280;23843;51.320;12.340;2023-02-24T10:53:50;99255.00;;;9.94;91.61
38038;BME280;23843;51.320;12.340;2023-02-24T10:56:16;99246.53;;;9.76;89.47
38038;BME280;23843;51.320;12.340;2023-02-24T10:58:42;99241.97;;;9.65;87.99
38038;BME280;23843;51.320;12.340;2023-02-24T11:01:16;99239.53;;;9.75;87.88
38038;BME280;23843;51.320;12.340;2023-02-24T11:03:50;99240.06;;;9.67;88.29
38038;BME280;23843;51.320;12.340;2023-02-24T11:06:17;99236.38;;;9.70;89.43
38038;BME280;23843;51.320;12.340;2023-02-24T11:08:43;99233.41;;;9.74;88.88
38038;BME280;23843;51.320;12.340;2023-02-24T11:11:14;99235.75;;;9.66;88.96
38038;BME280;23843;51.320;12.340;2023-02-24T11:13:47;99223.06;;;9.58;87.31
38038;BME280;23843;51.320;12.340;2023-02-24T11:16:13;99212.88;;;9.52;88.58
38038;BME280;23843;51.320;12.340;2023-02-24T11:18:47;99211.28;;;9.50;87.84
38038;BME280;23843;51.320;12.340;2023-02-24T11:21:14;99207.91;;;9.48;90.00
38038;BME280;23843;51.320;12.340;2023-02-24T11:23:43;99200.19;;;9.45;88.52
38038;BME280;23843;51.320;12.340;2023-02-24T11:26:13;99200.28;;;9.30;86.25
38038;BME280;23843;51.320;12.340;2023-02-24T11:28:48;99188.34;;;9.37;86.46
38038;BME280;23843;51.320;12.340;2023-02-24T11:31:27;99190.88;;;9.39;85.49
38038;BME280;23843;51.320;12.340;2023-02-24T11:34:04;99185.03;;;9.34;83.29
38038;BME280;23843;51.320;12.340;2023-02-24T11:36:38;99184.31;;;9.45;86.76
38038;BME280;23843;51.320;12.340;2023-02-24T11:39:31;99176.31;;;9.46;87.00
38038;BME280;23843;51.320;12.340;2023-02-24T11:42:06;99170.59;;;9.39;83.72
38038;BME280;23843;51.320;12.340;2023-02-24T11:44:39;99167.59;;;9.31;84.32
38038;BME280;23843;51.320;12.340;2023-02-24T11:47:13;99147.50;;;9.16;83.95
38038;BME280;23843;51.320;12.340;2023-02-24T11:49:44;99150.44;;;9.11;81.70
38038;BME280;23843;51.320;12.340;2023-02-24T11:52:15;99148.09;;;9.07;81.86
38038;BME280;23843;51.320;12.340;2023-02-24T11:54:47;99140.31;;;9.05;83.48
38038;BME280;23843;51.320;12.340;2023-02-24T11:57:18;99130.44;;;8.94;85.17
38038;BME280;23843;51.320;12.340;2023-02-24T11:59:47;99129.09;;;9.02;84.06
38038;BME280;23843;51.320;12.340;2023-02-24T12:02:18;99124.25;;;9.08;86.52
38038;BME280;23843;51.320;12.340;2023-02-24T12:04:57;99121.81;;;9.18;87.03
38038;BME280;23843;51.320;12.340;2023-02-24T12:07:29;99106.38;;;9.12;85.92
38038;BME280;23843;51.320;12.340;2023-02-24T12:10:01;99115.88;;;9.14;87.44
38038;BME280;23843;51.320;12.340;2023-02-24T12:12:33;99101.75;;;9.15;85.43
38038;BME280;23843;51.320;12.340;2023-02-24T12:15:04;99105.66;;;9.10;85.06
38038;BME280;23843;51.320;12.340;2023-02-24T12:17:39;99095.63;;;9.15;85.17
38038;BME280;23843;51.320;12.340;2023-02-24T12:20:19;99093.47;;;8.94;88.49
38038;BME280;23843;51.320;12.340;2023-02-24T12:22:49;99091.25;;;8.88;88.18
38038;BME280;23843;51.320;12.340;2023-02-24T12:25:18;99090.72;;;8.83;89.69
38038;BME280;23843;51.320;12.340;2023-02-24T12:27:58;99090.91;;;8.80;91.63
38038;BME280;23843;51.320;12.340;2023-02-24T12:30:37;99087.66;;;8.89;93.71
38038;BME280;23843;51.320;12.340;2023-02-24T12:33:14;99077.00;;;8.91;93.11
38038;BME280;23843;51.320;12.340;2023-02-24T12:35:54;99079.84;;;8.88;89.33
38038;BME280;23843;51.320;12.340;2023-02-24T12:38:35;99076.25;;;8.89;89.40
38038;BME280;23843;51.320;12.340;2023-02-24T12:41:16;99071.59;;;8.92;90.20
38038;BME280;23843;51.320;12.340;2023-02-24T12:43:49;99073.53;;;9.03;91.70
38038;BME280;23843;51.320;12.340;2023-02-24T12:46:22;99065.91;;;8.98;90.13
38038;BME280;23843;51.320;12.340;2023-02-24T12:51:47;99055.75;;;8.79;89.94
38038;BME280;23843;51.320;12.340;2023-02-24T12:54:22;99057.63;;;8.77;87.51
38038;BME280;23843;51.320;12.340;2023-02-24T12:56:53;99061.31;;;8.75;88.49
38038;BME280;23843;51.320;12.340;2023-02-24T12:59:24;99051.59;;;8.63;90.03
38038;BME280;23843;51.320;12.340;2023-02-24T13:01:58;99041.03;;;8.63;90.48
38038;BME280;23843;51.320;12.340;2023-02-24T13:04:35;99047.97;;;8.51;87.21
38038;BME280;23843;51.320;12.340;2023-02-24T13:07:11;99049.97;;;8.47;90.92
38038;BME280;23843;51.320;12.340;2023-02-24T13:09:46;99038.13;;;8.40;89.68
38038;BME280;23843;51.320;12.340;2023-02-24T13:12:19;99033.44;;;8.31;90.28
38038;BME280;23843;51.320;12.340;2023-02-24T13:14:50;99033.34;;;8.32;88.57
38038;BME280;23843;51.320;12.340;2023-02-24T13:17:19;99032.13;;;8.24;89.61
38038;BME280;23843;51.320;12.340;2023-02-24T13:19:46;99021.78;;;8.21;91.09
38038;BME280;23843;51.320;12.340;2023-02-24T13:22:23;99021.16;;;8.17;92.92
38038;BME280;23843;51.320;12.340;2023-02-24T13:25:11;99013.53;;;8.12;93.21
38038;BME280;23843;51.320;12.340;2023-02-24T13:27:41;99017.94;;;8.12;94.72
38038;BME280;23843;51.320;12.340;2023-02-24T13:30:24;99017.72;;;8.02;94.45
38038;BME280;23843;51.320;12.340;2023-02-24T13:33:00;99013.97;;;7.92;96.42
38038;BME280;23843;51.320;12.340;2023-02-24T13:35:33;99001.00;;;7.89;98.66
38038;BME280;23843;51.320;12.340;2023-02-24T13:38:19;99008.38;;;7.84;100.00
38038;BME280;23843;51.320;12.340;2023-02-24T13:40:46;98997.84;;;7.69;100.00
38038;BME280;23843;51.320;12.340;2023-02-24T13:43:21;98997.25;;;7.52;100.00
38038;BME280;23843;51.320;12.340;2023-02-24T13:45:53;99001.84;;;7.48;100.00
38038;BME280;23843;51.320;12.340;2023-02-24T13:48:36;98995.44;;;7.52;100.00
38038;BME280;23843;51.320;12.340;2023-02-24T13:51:17;99000.38;;;7.44;100.00
38038;BME280;23843;51.320;12.340;2023-02-24T13:54:01;98998.03;;;7.25;100.00
38038;BME280;23843;51.320;12.340;2023-02-24T13:56:36;98996.22;;;7.25;100.00
38038;BME280;23843;51.320;12.340;2023-02-24T13:59:39;98995.88;;;7.17;100.00
38038;BME280;23843;51.320;12.340;2023-02-24T14:02:12;99003.94;;;7.14;100.00
38038;BME280;23843;51.320;12.340;2023-02-24T14:04:45;98989.56;;;7.05;100.00
38038;BME280;23843;51.320;12.340;2023-02-24T14:07:18;98989.56;;;7.05;100.00
38038;BME280;23843;51.320;12.340;2023-02-24T14:09:48;98985.06;;;6.93;100.00
38038;BME280;23843;51.320;12.340;2023-02-24T14:12:19;98979.03;;;6.91;100.00
38038;BME280;23843;51.320;12.340;2023-02-24T14:14:46;98978.84;;;6.80;100.00
38038;BME280;23843;51.320;12.340;2023-02-24T14:17:24;98981.28;;;6.83;100.00
38038;BME280;23843;51.320;12.340;2023-02-24T14:19:52;98978.00;;;6.79;100.00
38038;BME280;23843;51.320;12.340;2023-02-24T14:22:19;98981.56;;;6.78;100.00
38038;BME280;23843;51.320;12.340;2023-02-24T14:24:48;98972.72;;;6.79;100.00
38038;BME280;23843;51.320;12.340;2023-02-24T14:27:20;98975.28;;;6.81;100.00
38038;BME280;23843;51.320;12.340;2023-02-24T14:29:49;98968.41;;;6.78;100.00
38038;BME280;23843;51.320;12.340;2023-02-24T14:32:19;98958.16;;;6.74;100.00
38038;BME280;23843;51.320;12.340;2023-02-24T14:34:46;98965.00;;;6.62;100.00
38038;BME280;23843;51.320;12.340;2023-02-24T14:37:12;98959.94;;;6.59;100.00
38038;BME280;23843;51.320;12.340;2023-02-24T14:39:38;98954.84;;;6.56;100.00
38038;BME280;23843;51.320;12.340;2023-02-24T14:42:12;98948.28;;;6.49;100.00
38038;BME280;23843;51.320;12.340;2023-02-24T14:44:41;98941.50;;;6.45;100.00
38038;BME280;23843;51.320;12.340;2023-02-24T14:47:09;98937.16;;;6.43;100.00
38038;BME280;23843;51.320;12.340;2023-02-24T14:52:22;98934.13;;;6.21;100.00
38038;BME280;23843;51.320;12.340;2023-02-24T14:54:53;98932.25;;;6.23;100.00
38038;BME280;23843;51.320;12.340;2023-02-24T14:57:25;98926.19;;;6.07;100.00
38038;BME280;23843;51.320;12.340;2023-02-24T14:59:55;98937.47;;;6.09;100.00
38038;BME280;23843;51.320;12.340;2023-02-24T15:02:26;98926.19;;;6.07;100.00
38038;BME280;23843;51.320;12.340;2023-02-24T15:04:56;98907.22;;;6.02;100.00
38038;BME280;23843;51.320;12.340;2023-02-24T15:07:25;98910.59;;;6.04;100.00
38038;BME280;23843;51.320;12.340;2023-02-24T15:09:54;98904.13;;;6.09;100.00
38038;BME280;23843;51.320;12.340;2023-02-24T15:12:26;98903.41;;;6.07;100.00
38038;BME280;23843;51.320;12.340;2023-02-24T15:14:55;98907.22;;;6.02;100.00
38038;BME280;23843;51.320;12.340;2023-02-24T15:17:23;98902.63;;;5.89;100.00
38038;BME280;23843;51.320;12.340;2023-02-24T15:19:49;98905.63;;;5.83;100.00
38038;BME280;23843;51.320;12.340;2023-02-24T15:22:19;98889.63;;;5.72;100.00
38038;BME280;23843;51.320;12.340;2023-02-24T15:24:45;98900.31;;;5.69;100.00
38038;BME280;23843;51.320;12.340;2023-02-24T15:27:21;98900.66;;;5.63;100.00
38038;BME280;23843;51.320;12.340;2023-02-24T15:30:01;98888.47;;;5.62;100.00
38038;BME280;23843;51.320;12.340;2023-02-24T15:32:30;98886.09;;;5.57;100.00
38038;BME280;23843;51.320;12.340;2023-02-24T15:34:57;98881.09;;;5.52;100.00
38038;BME280;23843;51.320;12.340;2023-02-24T15:37:25;98879.44;;;5.51;100.00
38038;BME280;23843;51.320;12.340;2023-02-24T15:40:01;98884.50;;;5.54;100.00
38038;BME280;23843;51.320;12.340;2023-02-24T15:42:31;98871.88;;;5.45;100.00
38038;BME280;23843;51.320;12.340;2023-02-24T15:44:59;98872.97;;;5.41;100.00
38038;BME280;23843;51.320;12.340;2023-02-24T15:47:30;98863.41;;;5.40;100.00
38038;BME280;23843;51.320;12.340;2023-02-24T15:49:55;98863.59;;;5.37;100.00
38038;BME280;23843;51.320;12.340;2023-02-24T15:52:24;98869.53;;;5.25;100.00
38038;BME280;23843;51.320;12.340;2023-02-24T15:54:51;98861.09;;;5.20;100.00
38038;BME280;23843;51.320;12.340;2023-02-24T15:57:17;98855.84;;;5.20;100.00
38038;BME280;23843;51.320;12.340;2023-02-24T15:59:43;98853.28;;;5.02;100.00
38038;BME280;23843;51.320;12.340;2023-02-24T16:02:13;98842.78;;;5.02;100.00
38038;BME280;23843;51.320;12.340;2023-02-24T16:04:39;98852.34;;;4.71;100.00
38038;BME280;23843;51.320;12.340;2023-02-24T16:07:08;98840.84;;;4.74;100.00
38038;BME280;23843;51.320;12.340;2023-02-24T16:09:37;98841.84;;;4.71;100.00
38038;BME280;23843;51.320;12.340;2023-02-24T16:12:07;98842.94;;;4.67;100.00
38038;BME280;23843;51.320;12.340;2023-02-24T16:14:35;98837.94;;;4.63;100.00
38038;BME280;23843;51.320;12.340;2023-02-24T16:17:06;98840.22;;;4.53;100.00
38038;BME280;23843;51.320;12.340;2023-02-24T16:19:33;98840.75;;;4.60;100.00
38038;BME280;23843;51.320;12.340;2023-02-24T16:21:59;98836.50;;;4.57;100.00
38038;BME280;23843;51.320;12.340;2023-02-24T16:24:27;98840.06;;;4.56;100.00
38038;BME280;23843;51.320;12.340;2023-02-24T16:26:53;98838.72;;;4.49;100.00
38038;BME280;23843;51.320;12.340;2023-02-24T16:29:19;98831.56;;;4.51;100.00
38038;BME280;23843;51.320;12.340;2023-02-24T16:31:45;98833.47;;;4.49;100.00
38038;BME280;23843;51.320;12.340;2023-02-24T16:34:13;98827.88;;;4.55;100.00
38038;BME280;23843;51.320;12.340;2023-02-24T16:36:41;98824.66;;;4.50;100.00
38038;BME280;23843;51.320;12.340;2023-02-24T16:39:08;98816.72;;;4.52;100.00
38038;BME280;23843;51.320;12.340;2023-02-24T16:41:37;98816.00;;;4.48;100.00
38038;BME280;23843;51.320;12.340;2023-02-24T16:44:03;98820.66;;;4.43;100.00
38038;BME280;23843;51.320;12.340;2023-02-24T16:46:34;98818.63;;;4.48;100.00
38038;BME280;23843;51.320;12.340;2023-02-24T16:49:00;98804.50;;;4.50;100.00
38038;BME280;23843;51.320;12.340;2023-02-24T16:51:25;98805.19;;;4.38;100.00
38038;BME280;23843;51.320;12.340;2023-02-24T16:53:53;98810.41;;;4.38;100.00
38038;BME280;23843;51.320;12.340;2023-02-24T16:56:20;98807.13;;;4.35;100.00
38038;BME280;23843;51.320;12.340;2023-02-24T16:58:46;98806.66;;;4.26;100.00
38038;BME280;23843;51.320;12.340;2023-02-24T17:01:17;98805.16;;;4.22;100.00
38038;BME280;23843;51.320;12.340;2023-02-24T17:03:45;98808.03;;;4.18;100.00
38038;BME280;23843;51.320;12.340;2023-02-24T17:06:14;98799.25;;;4.01;100.00
38038;BME280;23843;51.320;12.340;2023-02-24T17:08:41;98804.56;;;4.00;100.00
38038;BME280;23843;51.320;12.340;2023-02-24T17:11:10;98805.13;;;3.89;100.00
38038;BME280;23843;51.320;12.340;2023-02-24T17:13:39;98804.72;;;3.97;100.00
38038;BME280;23843;51.320;12.340;2023-02-24T17:16:05;98812.31;;;3.85;100.00
38038;BME280;23843;51.320;12.340;2023-02-24T17:18:31;98803.59;;;3.85;100.00
38038;BME280;23843;51.320;12.340;2023-02-24T17:20:57;98802.16;;;3.79;100.00
38038;BME280;23843;51.320;12.340;2023-02-24T17:23:23;98804.38;;;3.87;100.00
38038;BME280;23843;51.320;12.340;2023-02-24T17:26:00;98800.06;;;3.86;100.00
38038;BME280;23843;51.320;12.340;2023-02-24T17:28:28;98804.75;;;3.79;100.00
38038;BME280;23843;51.320;12.340;2023-02-24T17:30:54;98796.13;;;3.77;100.00
38038;BME280;23843;51.320;12.340;2023-02-24T17:33:20;98794.75;;;3.70;100.00
38038;BME280;23843;51.320;12.340;2023-02-24T17:35:49;98791.72;;;3.78;100.00
38038;BME280;23843;51.320;12.340;2023-02-24T17:38:19;98790.28;;;3.72;100.00
38038;BME280;23843;51.320;12.340;2023-02-24T17:40:49;98795.69;;;3.69;100.00
38038;BME280;23843;51.320;12.340;2023-02-24T17:43:19;98783.13;;;3.76;100.00
38038;BME280;23843;51.320;12.340;2023-02-24T17:45:46;98791.06;;;3.74;100.00
38038;BME280;23843;51.320;12.340;2023-02-24T17:48:14;98783.19;;;3.74;100.00
38038;BME280;23843;51.320;12.340;2023-02-24T17:50:41;98773.03;;;3.68;100.00
38038;BME280;23843;51.320;12.340;2023-02-24T17:53:07;98779.63;;;3.75;100.00
38038;BME280;23843;51.320;12.340;2023-02-24T17:55:34;98778.81;;;3.75;100.00
38038;BME280;23843;51.320;12.340;2023-02-24T17:58:00;98768.69;;;3.84;100.00
38038;BME280;23843;51.320;12.340;2023-02-24T18:00:26;98766.06;;;3.84;100.00
38038;BME280;23843;51.320;12.340;2023-02-24T18:02:55;98768.88;;;3.81;100.00
38038;BME280;23843;51.320;12.340;2023-02-24T18:05:21;98766.78;;;3.88;100.00
38038;BME280;23843;51.320;12.340;2023-02-24T18:07:47;98759.75;;;3.89;100.00
38038;BME280;23843;51.320;12.340;2023-02-24T18:10:16;98754.41;;;3.90;100.00
38038;BME280;23843;51.320;12.340;2023-02-24T18:12:41;98744.72;;;3.92;100.00
38038;BME280;23843;51.320;12.340;2023-02-24T18:15:08;98753.94;;;3.99;100.00
38038;BME280;23843;51.320;12.340;2023-02-24T18:17:36;98745.66;;;4.07;100.00
38038;BME280;23843;51.320;12.340;2023-02-24T18:20:05;98744.06;;;4.04;100.00
38038;BME280;23843;51.320;12.340;2023-02-24T18:22:31;98741.19;;;4.09;100.00
38038;BME280;23843;51.320;12.340;2023-02-24T18:24:57;98737.81;;;4.07;100.00
38038;BME280;23843;51.320;12.340;2023-02-24T18:27:24;98742.75;;;4.13;100.00
38038;BME280;23843;51.320;12.340;2023-02-24T18:29:49;98728.88;;;4.11;100.00
38038;BME280;23843;51.320;12.340;2023-02-24T18:32:15;98736.66;;;4.13;100.00
38038;BME280;23843;51.320;12.340;2023-02-24T18:34:42;98724.56;;;4.10;100.00
38038;BME280;23843;51.320;12.340;2023-02-24T18:37:09;98730.47;;;4.14;100.00
38038;BME280;23843;51.320;12.340;2023-02-24T18:39:36;98731.56;;;4.10;100.00